createdAt,value
2023-07-24T00:01:08.007Z,21.05
2023-07-24T00:03:34.610Z,21.03
2023-07-24T00:06:01.156Z,21.02
2023-07-24T00:08:27.819Z,21.03
2023-07-24T00:10:54.540Z,21.02
2023-07-24T00:13:21.095Z,21.02
2023-07-24T00:15:47.713Z,21.02
2023-07-24T00:18:14.221Z,21.00
2023-07-24T00:20:40.780Z,20.99
2023-07-24T00:23:07.324Z,20.97
2023-07-24T00:25:33.860Z,20.98
2023-07-24T00:28:00.405Z,20.97
2023-07-24T00:30:26.908Z,20.97
2023-07-24T00:32:53.434Z,20.96
2023-07-24T00:35:19.953Z,20.97
2023-07-24T00:37:46.541Z,20.95
2023-07-24T00:40:13.264Z,20.96
2023-07-24T00:42:39.790Z,20.96
2023-07-24T00:45:07.620Z,20.93
2023-07-24T00:47:34.238Z,20.95
2023-07-24T00:50:00.800Z,20.92
2023-07-24T00:52:27.354Z,20.92
2023-07-24T00:54:54.751Z,20.90
2023-07-24T00:57:21.300Z,20.91
2023-07-24T00:59:47.925Z,20.90
2023-07-24T01:02:14.558Z,20.91
2023-07-24T01:04:41.719Z,20.90
2023-07-24T01:07:08.467Z,20.75
2023-07-24T01:09:35.303Z,20.82
2023-07-24T01:12:44.483Z,20.91
2023-07-24T01:15:17.403Z,20.78
2023-07-24T01:17:50.330Z,20.89
2023-07-24T01:20:18.747Z,20.71
2023-07-24T01:23:14.899Z,20.83
2023-07-24T01:25:58.061Z,20.86
2023-07-24T01:28:25.637Z,20.81
2023-07-24T01:30:53.184Z,20.75
2023-07-24T01:33:21.724Z,20.79
2023-07-24T01:35:58.637Z,20.75
2023-07-24T01:38:29.368Z,20.70
2023-07-24T01:40:56.445Z,20.80
2023-07-24T01:43:23.981Z,20.76
2023-07-24T01:45:50.685Z,20.82
2023-07-24T01:48:18.657Z,20.77
2023-07-24T01:50:45.503Z,20.79
2023-07-24T01:53:12.284Z,20.77
2023-07-24T01:55:39.128Z,20.81
2023-07-24T01:58:05.904Z,20.64
2023-07-24T02:00:32.782Z,20.80
2023-07-24T02:02:59.572Z,20.62
2023-07-24T02:05:26.994Z,20.76
2023-07-24T02:07:53.613Z,20.79
2023-07-24T02:10:20.306Z,20.69
2023-07-24T02:12:47.574Z,20.69
2023-07-24T02:15:14.315Z,20.63
2023-07-24T02:17:41.562Z,20.71
2023-07-24T02:20:08.903Z,20.64
2023-07-24T02:22:35.625Z,20.72
2023-07-24T02:25:02.556Z,20.59
2023-07-24T02:27:35.265Z,20.61
2023-07-24T02:30:03.121Z,20.73
2023-07-24T02:32:29.986Z,20.74
2023-07-24T02:34:56.959Z,20.70
2023-07-24T02:37:23.864Z,20.70
2023-07-24T02:39:50.530Z,20.82
2023-07-24T02:42:17.483Z,20.72
2023-07-24T02:44:44.205Z,20.79
2023-07-24T02:47:11.154Z,20.86
2023-07-24T02:49:37.839Z,20.72
2023-07-24T02:52:04.884Z,20.84
2023-07-24T02:54:31.585Z,20.83
2023-07-24T02:56:59.232Z,20.82
2023-07-24T02:59:25.914Z,20.68
2023-07-24T03:01:52.869Z,20.84
2023-07-24T03:04:19.965Z,20.83
2023-07-24T03:06:46.679Z,20.78
2023-07-24T03:09:13.605Z,20.76
2023-07-24T03:11:40.424Z,20.73
2023-07-24T03:14:07.091Z,20.73
2023-07-24T03:16:34.804Z,20.71
2023-07-24T03:19:01.512Z,20.80
2023-07-24T03:21:28.240Z,20.77
2023-07-24T03:23:55.152Z,20.82
2023-07-24T03:26:21.788Z,20.83
2023-07-24T03:28:48.453Z,20.81
2023-07-24T03:31:15.205Z,20.81
2023-07-24T03:33:42.070Z,20.79
2023-07-24T03:36:08.903Z,20.77
2023-07-24T03:38:36.038Z,20.79
2023-07-24T03:41:02.861Z,20.80
2023-07-24T03:43:29.555Z,20.82
2023-07-24T03:45:56.397Z,20.81
2023-07-24T03:48:23.199Z,20.67
2023-07-24T03:50:52.134Z,20.91
2023-07-24T03:53:18.878Z,20.86
2023-07-24T03:55:46.492Z,20.85
2023-07-24T03:58:13.144Z,20.79
2023-07-24T04:00:39.855Z,20.81
2023-07-24T04:03:06.650Z,20.72
2023-07-24T04:05:35.765Z,20.84
2023-07-24T04:08:02.994Z,20.59
2023-07-24T04:10:31.952Z,20.78
2023-07-24T04:12:58.752Z,20.80
2023-07-24T04:15:25.416Z,20.67
2023-07-24T04:17:52.138Z,20.66
2023-07-24T04:20:18.846Z,20.76
2023-07-24T04:22:45.519Z,20.68
2023-07-24T04:25:12.503Z,20.71
2023-07-24T04:27:39.134Z,20.69
2023-07-24T04:30:06.490Z,20.67
2023-07-24T04:32:33.074Z,20.71
2023-07-24T04:34:59.862Z,20.62
2023-07-24T04:37:26.623Z,20.61
2023-07-24T04:39:53.293Z,20.59
2023-07-24T04:42:22.685Z,20.60
2023-07-24T04:44:51.191Z,20.69
2023-07-24T04:47:17.849Z,20.58
2023-07-24T04:49:44.531Z,20.54
2023-07-24T04:52:11.198Z,20.68
2023-07-24T04:54:38.001Z,20.58
2023-07-24T04:57:05.420Z,20.62
2023-07-24T04:59:31.987Z,20.69
2023-07-24T05:01:58.656Z,20.63
2023-07-24T05:04:25.581Z,20.68
2023-07-24T05:06:52.347Z,20.63
2023-07-24T05:09:19.050Z,20.52
2023-07-24T05:11:48.912Z,20.55
2023-07-24T05:14:15.651Z,20.49
2023-07-24T05:16:42.450Z,20.63
2023-07-24T05:19:09.215Z,20.48
2023-07-24T05:21:35.926Z,20.59
2023-07-24T05:24:03.028Z,20.60
2023-07-24T05:26:30.039Z,20.45
2023-07-24T05:28:58.196Z,20.50
2023-07-24T05:31:24.896Z,20.55
2023-07-24T05:33:51.616Z,20.64
2023-07-24T05:36:18.591Z,20.67
2023-07-24T05:38:45.393Z,20.62
2023-07-24T05:41:12.189Z,20.64
2023-07-24T05:43:38.921Z,20.54
2023-07-24T05:46:05.690Z,20.57
2023-07-24T05:48:32.532Z,20.63
2023-07-24T05:50:59.248Z,20.64
2023-07-24T05:53:25.962Z,20.53
2023-07-24T05:56:01.061Z,20.50
2023-07-24T05:58:28.497Z,20.63
2023-07-24T06:00:56.523Z,20.58
2023-07-24T06:03:24.980Z,20.58
2023-07-24T06:05:55.734Z,20.71
2023-07-24T06:08:23.222Z,20.57
2023-07-24T06:10:51.304Z,20.58
2023-07-24T06:13:21.236Z,20.66
2023-07-24T06:15:49.740Z,20.58
2023-07-24T06:18:16.607Z,20.72
2023-07-24T06:20:43.293Z,20.62
2023-07-24T06:23:09.993Z,20.63
2023-07-24T06:25:36.808Z,20.63
2023-07-24T06:28:03.627Z,20.61
2023-07-24T06:30:30.381Z,20.55
2023-07-24T06:32:57.150Z,20.53
2023-07-24T06:35:24.249Z,20.68
2023-07-24T06:37:50.955Z,20.69
2023-07-24T06:40:17.710Z,20.63
2023-07-24T06:42:44.386Z,20.59
2023-07-24T06:45:11.501Z,20.60
2023-07-24T06:47:38.329Z,20.60
2023-07-24T06:50:05.896Z,20.54
2023-07-24T06:52:34.457Z,20.52
2023-07-24T06:55:01.299Z,20.71
2023-07-24T06:57:28.353Z,20.56
2023-07-24T06:59:55.643Z,20.61
2023-07-24T07:02:22.783Z,20.62
2023-07-24T07:04:49.591Z,20.57
2023-07-24T07:07:16.638Z,20.64
2023-07-24T07:09:43.527Z,20.58
2023-07-24T07:12:10.379Z,20.47
2023-07-24T07:14:37.251Z,20.53
2023-07-24T07:17:04.213Z,20.53
2023-07-24T07:19:31.031Z,20.51
2023-07-24T07:22:01.702Z,20.64
2023-07-24T07:24:28.423Z,20.62
2023-07-24T07:26:55.488Z,20.54
2023-07-24T07:29:22.330Z,20.53
2023-07-24T07:31:49.080Z,20.62
2023-07-24T07:34:15.779Z,20.51
2023-07-24T07:36:43.782Z,20.53
2023-07-24T07:39:10.970Z,20.64
2023-07-24T07:41:38.072Z,20.55
2023-07-24T07:44:05.048Z,20.63
2023-07-24T07:46:32.104Z,20.76
2023-07-24T07:48:58.996Z,20.79
2023-07-24T07:51:26.898Z,20.69
2023-07-24T07:53:53.961Z,20.71
2023-07-24T07:56:21.003Z,20.82
2023-07-24T07:58:47.792Z,20.78
2023-07-24T08:01:14.902Z,20.77
2023-07-24T08:03:41.772Z,20.76
2023-07-24T08:06:08.656Z,20.76
2023-07-24T08:08:35.428Z,20.85
2023-07-24T08:11:06.629Z,20.87
2023-07-24T08:13:33.999Z,20.78
2023-07-24T08:16:00.832Z,20.96
2023-07-24T08:18:27.624Z,20.93
2023-07-24T08:20:56.849Z,20.91
2023-07-24T08:23:23.492Z,20.98
2023-07-24T08:25:54.683Z,20.82
2023-07-24T08:28:22.049Z,20.87
2023-07-24T08:30:57.162Z,21.04
2023-07-24T08:33:23.873Z,20.90
2023-07-24T08:36:09.012Z,20.94
2023-07-24T08:38:38.978Z,21.01
2023-07-24T08:41:08.086Z,21.04
2023-07-24T08:43:37.418Z,21.00
2023-07-24T08:46:07.189Z,21.05
2023-07-24T08:48:39.600Z,21.01
2023-07-24T08:51:08.797Z,21.00
2023-07-24T08:53:37.925Z,20.98
2023-07-24T08:56:06.334Z,20.94
2023-07-24T08:58:33.628Z,21.07
2023-07-24T09:01:01.811Z,21.08
2023-07-24T09:03:29.571Z,21.12
2023-07-24T09:05:56.370Z,20.97
2023-07-24T09:08:34.224Z,21.08
2023-07-24T09:11:02.256Z,20.94
2023-07-24T09:13:31.794Z,20.97
2023-07-24T09:16:00.346Z,21.00
2023-07-24T09:18:27.255Z,21.01
2023-07-24T09:20:53.985Z,20.96
2023-07-24T09:23:30.109Z,21.02
2023-07-24T09:25:56.914Z,21.05
2023-07-24T09:28:23.860Z,21.07
2023-07-24T09:30:58.637Z,21.14
2023-07-24T09:33:39.473Z,21.06
2023-07-24T09:36:11.788Z,20.99
2023-07-24T09:38:39.487Z,20.97
2023-07-24T09:41:06.893Z,21.03
2023-07-24T09:43:38.864Z,21.14
2023-07-24T09:46:08.538Z,21.13
2023-07-24T09:48:41.540Z,20.99
2023-07-24T09:51:12.792Z,21.10
2023-07-24T09:53:50.781Z,21.04
2023-07-24T09:56:19.269Z,21.08
2023-07-24T09:58:46.157Z,21.13
2023-07-24T10:01:13.328Z,21.05
2023-07-24T10:03:43.730Z,20.96
2023-07-24T10:06:16.057Z,21.13
2023-07-24T10:08:43.644Z,21.15
2023-07-24T10:11:12.865Z,21.10
2023-07-24T10:13:41.397Z,21.05
2023-07-24T10:16:08.800Z,21.03
2023-07-24T10:18:42.486Z,21.12
2023-07-24T10:21:11.594Z,21.00
2023-07-24T10:23:42.972Z,21.15
2023-07-24T10:26:09.814Z,21.15
2023-07-24T10:28:42.861Z,20.98
2023-07-24T10:31:24.839Z,21.16
2023-07-24T10:33:52.482Z,20.97
2023-07-24T10:36:21.241Z,21.13
2023-07-24T10:38:48.600Z,21.01
2023-07-24T10:41:18.170Z,21.16
2023-07-24T10:43:48.540Z,21.02
2023-07-24T10:46:17.759Z,21.14
2023-07-24T10:48:46.330Z,21.04
2023-07-24T10:51:17.586Z,21.09
2023-07-24T10:53:49.510Z,21.10
2023-07-24T10:56:17.774Z,21.09
2023-07-24T10:58:44.946Z,21.00
2023-07-24T11:01:26.766Z,20.96
2023-07-24T11:03:53.845Z,21.09
2023-07-24T11:06:23.590Z,21.02
2023-07-24T11:08:55.191Z,21.10
2023-07-24T11:11:21.867Z,21.10
2023-07-24T11:13:48.554Z,21.04
2023-07-24T11:16:15.482Z,21.16
2023-07-24T11:18:54.832Z,21.11
2023-07-24T11:21:24.382Z,21.09
2023-07-24T11:23:55.688Z,21.00
2023-07-24T11:26:24.307Z,21.12
2023-07-24T11:28:52.267Z,21.16
2023-07-24T11:31:22.412Z,21.06
2023-07-24T11:33:51.066Z,21.01
2023-07-24T11:36:18.568Z,21.15
2023-07-24T11:38:48.898Z,21.16
2023-07-24T11:41:17.486Z,21.06
2023-07-24T11:43:52.777Z,21.18
2023-07-24T11:46:27.383Z,21.18
2023-07-24T11:48:56.995Z,21.18
2023-07-24T11:51:25.769Z,21.11
2023-07-24T11:53:52.777Z,21.13
2023-07-24T11:56:21.127Z,21.18
2023-07-24T11:58:47.802Z,21.18
2023-07-24T12:01:16.063Z,21.20
2023-07-24T12:03:44.103Z,21.15
2023-07-24T12:06:17.984Z,21.16
2023-07-24T12:08:45.436Z,21.19
2023-07-24T12:11:21.186Z,21.19
2023-07-24T12:13:48.310Z,21.18
2023-07-24T12:16:15.321Z,21.20
2023-07-24T12:18:42.024Z,21.14
2023-07-24T12:21:08.746Z,21.10
2023-07-24T12:23:35.403Z,21.15
2023-07-24T12:26:02.027Z,21.22
2023-07-24T12:28:29.350Z,21.18
2023-07-24T12:30:56.200Z,21.14
2023-07-24T12:33:25.665Z,21.14
2023-07-24T12:35:53.060Z,21.09
2023-07-24T12:38:19.889Z,21.21
2023-07-24T12:40:46.632Z,21.08
2023-07-24T12:43:13.732Z,21.11
2023-07-24T12:45:40.434Z,21.06
2023-07-24T12:48:07.256Z,21.18
2023-07-24T12:50:35.173Z,21.09
2023-07-24T12:53:04.370Z,21.01
2023-07-24T12:55:33.637Z,21.15
2023-07-24T12:58:00.476Z,21.12
2023-07-24T13:00:27.620Z,21.12
2023-07-24T13:02:54.482Z,21.15
2023-07-24T13:05:21.298Z,21.10
2023-07-24T13:07:48.085Z,21.09
2023-07-24T13:10:14.780Z,21.06
2023-07-24T13:12:41.505Z,21.10
2023-07-24T13:15:08.445Z,21.22
2023-07-24T13:17:36.609Z,21.14
2023-07-24T13:20:03.445Z,21.12
2023-07-24T13:22:30.072Z,21.14
2023-07-24T13:24:56.768Z,21.13
2023-07-24T13:27:23.515Z,21.14
2023-07-24T13:29:50.145Z,21.14
2023-07-24T13:32:17.350Z,21.21
2023-07-24T13:34:44.122Z,21.25
2023-07-24T13:37:10.818Z,21.21
2023-07-24T13:39:37.688Z,21.17
2023-07-24T13:42:04.810Z,21.21
2023-07-24T13:44:31.465Z,21.18
2023-07-24T13:46:58.144Z,21.20
2023-07-24T13:49:24.821Z,21.25
2023-07-24T13:51:51.455Z,21.23
2023-07-24T13:54:18.347Z,21.16
2023-07-24T13:56:45.004Z,21.22
2023-07-24T13:59:11.639Z,21.26
2023-07-24T14:01:38.355Z,21.34
2023-07-24T14:04:05.260Z,21.23
2023-07-24T14:06:32.100Z,21.37
2023-07-24T14:08:58.718Z,21.31
2023-07-24T14:11:26.201Z,21.36
2023-07-24T14:13:52.867Z,21.39
2023-07-24T14:16:19.471Z,21.34
2023-07-24T14:18:46.204Z,21.37
2023-07-24T14:21:12.801Z,21.35
2023-07-24T14:23:39.617Z,21.33
2023-07-24T14:26:06.287Z,21.38
2023-07-24T14:28:33.610Z,21.40
2023-07-24T14:31:00.568Z,21.39
2023-07-24T14:33:27.425Z,21.37
2023-07-24T14:35:56.097Z,21.31
2023-07-24T14:38:22.829Z,21.39
2023-07-24T14:40:49.516Z,21.44
2023-07-24T14:43:16.128Z,21.43
2023-07-24T14:45:42.929Z,21.34
2023-07-24T14:48:14.863Z,21.39
2023-07-24T14:50:41.705Z,21.40
2023-07-24T14:53:08.374Z,21.32
2023-07-24T14:55:35.054Z,21.36
2023-07-24T14:58:01.671Z,21.46
2023-07-24T15:00:29.197Z,21.44
2023-07-24T15:02:55.906Z,21.37
2023-07-24T15:05:23.957Z,21.41
2023-07-24T15:07:50.616Z,21.38
2023-07-24T15:10:17.322Z,21.37
2023-07-24T15:12:44.004Z,21.43
2023-07-24T15:15:10.948Z,21.46
2023-07-24T15:17:37.634Z,21.39
2023-07-24T15:20:05.745Z,21.39
2023-07-24T15:22:32.788Z,21.47
2023-07-24T15:24:59.587Z,21.50
2023-07-24T15:27:26.427Z,21.35
2023-07-24T15:29:53.321Z,21.42
2023-07-24T15:32:20.402Z,21.41
2023-07-24T15:34:47.283Z,21.43
2023-07-24T15:37:14.019Z,21.44
2023-07-24T15:39:40.862Z,21.32
2023-07-24T15:42:08.382Z,21.32
2023-07-24T15:44:35.609Z,21.27
2023-07-24T15:47:02.833Z,21.31
2023-07-24T15:49:29.727Z,21.37
2023-07-24T15:51:56.721Z,21.38
2023-07-24T15:54:23.596Z,21.33
2023-07-24T15:56:50.729Z,21.45
2023-07-24T15:59:17.514Z,21.45
2023-07-24T16:01:44.587Z,21.27
2023-07-24T16:04:11.457Z,21.38
2023-07-24T16:06:38.292Z,21.23
2023-07-24T16:09:05.202Z,21.44
2023-07-24T16:11:33.358Z,21.24
2023-07-24T16:14:00.436Z,21.46
2023-07-24T16:16:27.658Z,21.28
2023-07-24T16:19:15.972Z,21.44
2023-07-24T16:21:45.344Z,21.36
2023-07-24T16:24:12.982Z,21.32
2023-07-24T16:26:40.435Z,21.20
2023-07-24T16:29:07.596Z,21.19
2023-07-24T16:31:36.294Z,21.39
2023-07-24T16:34:04.350Z,21.38
2023-07-24T16:36:36.479Z,21.30
2023-07-24T16:39:06.657Z,21.22
2023-07-24T16:41:34.252Z,21.17
2023-07-24T16:44:03.004Z,21.28
2023-07-24T16:46:30.646Z,21.17
2023-07-24T16:48:57.607Z,21.35
2023-07-24T16:51:24.710Z,21.26
2023-07-24T16:53:51.552Z,21.30
2023-07-24T16:56:21.294Z,21.20
2023-07-24T16:58:48.089Z,21.11
2023-07-24T17:01:15.229Z,21.06
2023-07-24T17:03:42.442Z,21.17
2023-07-24T17:06:09.298Z,21.17
2023-07-24T17:08:36.056Z,21.14
2023-07-24T17:11:03.161Z,21.24
2023-07-24T17:13:31.373Z,21.13
2023-07-24T17:15:58.182Z,21.09
2023-07-24T17:18:25.050Z,21.13
2023-07-24T17:20:51.852Z,21.21
2023-07-24T17:23:18.956Z,21.01
2023-07-24T17:25:50.267Z,21.11
2023-07-24T17:28:17.098Z,21.04
2023-07-24T17:30:44.137Z,21.11
2023-07-24T17:33:10.996Z,20.95
2023-07-24T17:35:37.844Z,21.16
2023-07-24T17:38:04.580Z,21.08
2023-07-24T17:40:31.413Z,21.05
2023-07-24T17:42:58.514Z,21.15
2023-07-24T17:45:25.230Z,21.07
2023-07-24T17:47:52.120Z,21.05
2023-07-24T17:50:22.287Z,21.01
2023-07-24T17:52:49.415Z,21.01
2023-07-24T17:55:18.740Z,21.07
2023-07-24T17:57:52.699Z,21.05
2023-07-24T18:00:20.198Z,21.05
2023-07-24T18:02:47.087Z,20.99
2023-07-24T18:05:13.971Z,21.03
2023-07-24T18:07:40.743Z,20.99
2023-07-24T18:10:08.585Z,21.08
2023-07-24T18:12:36.089Z,20.96
2023-07-24T18:15:02.964Z,21.14
2023-07-24T18:17:30.111Z,20.99
2023-07-24T18:19:56.891Z,21.09
2023-07-24T18:22:24.362Z,21.01
2023-07-24T18:24:51.009Z,21.15
2023-07-24T18:27:17.868Z,21.07
2023-07-24T18:29:46.226Z,21.01
2023-07-24T18:32:13.393Z,21.00
2023-07-24T18:34:40.423Z,21.06
2023-07-24T18:37:08.004Z,20.93
2023-07-24T18:39:35.038Z,20.94
2023-07-24T18:42:01.801Z,20.89
2023-07-24T18:44:28.904Z,20.87
2023-07-24T18:46:55.812Z,20.95
2023-07-24T18:49:22.946Z,21.00
2023-07-24T18:51:49.828Z,20.90
2023-07-24T18:54:16.624Z,20.88
2023-07-24T18:56:43.673Z,20.99
2023-07-24T18:59:10.823Z,20.85
2023-07-24T19:01:37.653Z,20.84
2023-07-24T19:04:04.641Z,20.94
2023-07-24T19:06:32.067Z,20.88
2023-07-24T19:09:01.877Z,20.89
2023-07-24T19:11:29.297Z,21.03
2023-07-24T19:13:56.509Z,20.84
2023-07-24T19:16:23.417Z,20.91
2023-07-24T19:18:51.032Z,20.90
2023-07-24T19:21:17.903Z,20.97
2023-07-24T19:23:44.617Z,20.86
2023-07-24T19:26:12.854Z,21.02
2023-07-24T19:28:39.677Z,20.95
2023-07-24T19:31:06.570Z,21.02
2023-07-24T19:33:33.852Z,20.99
2023-07-24T19:36:02.482Z,20.92
2023-07-24T19:38:29.601Z,20.90
2023-07-24T19:40:58.047Z,20.93
2023-07-24T19:43:25.033Z,20.90
2023-07-24T19:45:52.666Z,20.81
2023-07-24T19:48:20.762Z,20.82
2023-07-24T19:50:50.032Z,20.81
2023-07-24T19:53:19.265Z,20.91
2023-07-24T19:55:50.020Z,20.75
2023-07-24T19:58:30.659Z,20.81
2023-07-24T20:00:59.478Z,20.97
2023-07-24T20:03:29.241Z,20.81
2023-07-24T20:05:56.984Z,20.84
2023-07-24T20:08:26.440Z,20.75
2023-07-24T20:10:58.190Z,20.94
2023-07-24T20:13:25.796Z,20.90
2023-07-24T20:18:19.672Z,20.91
2023-07-24T20:20:47.339Z,20.74
2023-07-24T20:23:15.747Z,20.83
2023-07-24T20:25:43.874Z,20.79
2023-07-24T20:28:10.632Z,20.73
2023-07-24T20:30:37.579Z,20.72
2023-07-24T20:33:04.546Z,20.78
2023-07-24T20:35:33.070Z,20.73
2023-07-24T20:38:06.204Z,20.71
2023-07-24T20:40:34.233Z,20.82
2023-07-24T20:43:02.555Z,20.65
2023-07-24T20:45:29.413Z,20.66
2023-07-24T20:48:09.002Z,20.62
2023-07-24T20:50:36.701Z,20.80
2023-07-24T20:53:03.471Z,20.75
2023-07-24T20:55:30.166Z,20.78
2023-07-24T20:57:56.989Z,20.77
2023-07-24T21:00:23.785Z,20.63
2023-07-24T21:02:50.753Z,20.75
2023-07-24T21:05:17.660Z,20.80
2023-07-24T21:07:44.449Z,20.82
2023-07-24T21:10:13.525Z,20.76
2023-07-24T21:12:42.328Z,20.75
2023-07-24T21:15:09.805Z,20.64
2023-07-24T21:17:37.574Z,20.83
2023-07-24T21:20:07.565Z,20.66
2023-07-24T21:22:34.969Z,20.75
2023-07-24T21:25:01.654Z,20.92
2023-07-24T21:27:28.453Z,20.88
2023-07-24T21:29:56.432Z,20.82
2023-07-24T21:32:23.540Z,20.76
2023-07-24T21:34:50.334Z,20.80
2023-07-24T21:37:17.162Z,20.88
2023-07-24T21:39:43.948Z,20.84
2023-07-24T21:42:11.018Z,20.96
2023-07-24T21:44:37.844Z,20.89
2023-07-24T21:47:05.055Z,20.93
2023-07-24T21:49:32.733Z,20.80
2023-07-24T21:52:01.252Z,20.83
2023-07-24T21:54:28.028Z,20.96
2023-07-24T21:56:54.798Z,20.98
2023-07-24T21:59:21.614Z,20.84
2023-07-24T22:01:48.640Z,20.90
2023-07-24T22:04:15.563Z,20.91
2023-07-24T22:06:42.478Z,21.03
2023-07-24T22:09:09.228Z,20.93
2023-07-24T22:11:37.309Z,20.94
2023-07-24T22:14:04.038Z,21.02
2023-07-24T22:16:31.155Z,21.01
2023-07-24T22:18:57.896Z,20.93
2023-07-24T22:21:32.620Z,21.06
2023-07-24T22:23:59.762Z,20.99
2023-07-24T22:26:26.601Z,20.84
2023-07-24T22:28:53.324Z,21.02
2023-07-24T22:31:20.225Z,20.86
2023-07-24T22:33:47.044Z,20.95
2023-07-24T22:36:13.732Z,20.93
2023-07-24T22:38:40.573Z,21.01
2023-07-24T22:41:12.196Z,20.91
2023-07-24T22:43:39.288Z,20.96
2023-07-24T22:46:06.565Z,20.90
2023-07-24T22:48:33.339Z,21.08
2023-07-24T22:51:00.060Z,20.90
2023-07-24T22:53:27.258Z,20.96
2023-07-24T22:55:54.389Z,21.03
2023-07-24T22:58:21.103Z,20.89
2023-07-24T23:00:48.136Z,21.03
2023-07-24T23:03:15.398Z,20.99
2023-07-24T23:05:42.365Z,20.89
2023-07-24T23:08:09.285Z,20.84
2023-07-24T23:10:36.395Z,20.81
2023-07-24T23:13:03.484Z,20.84
2023-07-24T23:15:30.199Z,21.03
2023-07-24T23:17:56.940Z,20.90
2023-07-24T23:20:26.252Z,20.91
2023-07-24T23:22:53.088Z,20.84
2023-07-24T23:25:19.773Z,20.98
2023-07-24T23:27:46.563Z,20.91
2023-07-24T23:30:13.430Z,20.91
2023-07-24T23:32:40.249Z,20.99
2023-07-24T23:35:07.469Z,20.94
2023-07-24T23:37:34.582Z,20.97
2023-07-24T23:40:01.426Z,20.88
2023-07-24T23:42:28.293Z,20.86
2023-07-24T23:44:55.083Z,20.93
2023-07-24T23:47:21.968Z,21.04
2023-07-24T23:49:48.795Z,20.89
2023-07-24T23:52:15.896Z,20.86
2023-07-24T23:54:42.618Z,20.98
2023-07-24T23:57:12.460Z,20.98
2023-07-24T23:59:39.132Z,20.93
